Davie, FL (33325)

9:52 AM EDT on August 30, 2016 (GMT -0400)
Plantation, FL just off Commadore | | Change Station

Elev 19 ft 26.12 °N, 80.33 °W | Updated 24 seconds ago

Mostly Cloudy
Mostly Cloudy
81.7 °F
Feels Like 90 °F
N
1.0
Wind Variable Wind from SE
Gusts 5.0 mph

Today
High -- | Low -- °F
--% Chance of Precip.
Yesterday
High -- | Low -- °F
Precip. -- in
Pressure 29.93 in
Visibility 10.0 miles
Clouds Few 2000 ft
Mostly Cloudy 9000 ft
Mostly Cloudy 12000 ft
Mostly Cloudy 25000 ft
Heat Index 90 °F
Dew Point 78 °F
Humidity 87%
Rainfall in
Snow Depth Not available.
7:00 AM 7:42 PM
Waning Crescent, 3% visible
METAR KFLL 301253Z 00000KT 10SM FEW020 BKN090 BKN120 BKN250 25/24 A2993 RMK AO2 SLP135 T02500239 $
Pressure 29.93 in
Visibility 10.0 miles
Clouds Few 2000 ft
Mostly Cloudy 9000 ft
Mostly Cloudy 12000 ft
Mostly Cloudy 25000 ft
Heat Index 90 °F
Dew Point 78 °F
Humidity 87%
Rainfall in
Snow Depth Not available.
7:00 AM 7:42 PM
Waning Crescent, 3% visible
METAR KFLL 301253Z 00000KT 10SM FEW020 BKN090 BKN120 BKN250 25/24 A2993 RMK AO2 SLP135 T02500239 $

10-Day Weather Forecast

Almanac

Astronomy

Aug. 30, 2016 Rise Set
Actual Time
Civil Twilight
Nautical Twilight
Astronomical Twilight
Moon
Length of Visible Light
Length of Day
Tomorrow will be .
, % of the Moon is Illuminated

Today's Extremes

State Highs State Lows

Community

WunderPhotos

Upload Photos

1,935,833 photos uploaded!

WunderBlog® & News

Nearby

Air Quality

  Air Quality AQ Index Pollutant
Not available.

Snow Depth

Station Depth Elevation

Earthquake Activity

City Distance Mag. Time & Date
Minimum magnitude displayed is 2.5.

Coastal Water Temperatures

Place Temperature

Stations

Nearby Weather Stations

Station Location Temp. Windchill Dew Point Humidity Wind Precip. Elev Updated Type
                   

Watches & Warnings

There are currently no watches in effect.